createdAt,value
2016-03-02T00:02:23.765Z,1002.66
2016-03-02T00:05:26.648Z,1002.68
2016-03-02T00:08:36.719Z,1002.5
2016-03-02T00:11:49.729Z,1002.58
2016-03-02T00:14:59.784Z,1002.5
2016-03-02T00:18:11.386Z,1002.4
2016-03-02T00:21:27.144Z,1002.42
2016-03-02T00:24:29.887Z,1002.42
2016-03-02T00:27:41.535Z,1002.32
2016-03-02T00:30:51.562Z,1002.32
2016-03-02T00:34:02.882Z,1002.18
2016-03-02T00:37:18.766Z,1002.18
2016-03-02T00:40:25.462Z,1002.12
2016-03-02T00:43:28.266Z,1002.14
2016-03-02T00:46:40.071Z,1002.1
2016-03-02T00:49:49.097Z,1001.96
2016-03-02T00:52:58.355Z,1001.88
2016-03-02T00:56:10.160Z,1001.9
2016-03-02T00:59:25.762Z,1001.74
2016-03-02T01:02:28.568Z,1001.76
2016-03-02T01:05:37.201Z,1001.64
2016-03-02T01:08:49.101Z,1001.66
2016-03-02T01:12:00.923Z,1001.47
2016-03-02T01:15:10.914Z,1001.37
2016-03-02T01:18:26.611Z,1001.29
2016-03-02T01:21:29.336Z,1001.37
2016-03-02T01:24:38.407Z,1001.29
2016-03-02T01:27:48.402Z,1001.29
2016-03-02T01:30:58.660Z,1001.19
2016-03-02T01:34:08.621Z,1001.21
2016-03-02T01:37:24.099Z,1001.09
2016-03-02T01:40:26.826Z,1001.11
2016-03-02T01:43:38.365Z,1000.99
2016-03-02T01:46:50.220Z,1000.89
2016-03-02T01:50:02.056Z,1000.91
2016-03-02T01:53:11.236Z,1000.81
2016-03-02T01:56:24.274Z,1000.69
2016-03-02T01:59:27.032Z,1000.53
2016-03-02T02:02:38.525Z,1000.55
2016-03-02T02:05:50.134Z,1000.45
2016-03-02T02:09:01.991Z,1000.41
2016-03-02T02:12:13.889Z,1000.35
2016-03-02T02:15:27.930Z,1000.21
2016-03-02T02:18:30.844Z,1000.09
2016-03-02T02:21:42.743Z,1000.07
2016-03-02T02:24:54.472Z,1000.03
2016-03-02T02:28:06.293Z,999.95
2016-03-02T02:31:19.940Z,999.85
2016-03-02T02:34:26.653Z,999.75
2016-03-02T02:37:29.456Z,999.79
2016-03-02T02:40:38.856Z,999.69
2016-03-02T02:43:50.569Z,999.66
2016-03-02T02:47:01.874Z,999.66
2016-03-02T02:50:13.602Z,999.64
2016-03-02T02:53:27.329Z,999.66
2016-03-02T02:56:29.977Z,999.71
2016-03-02T02:59:38.876Z,999.77
2016-03-02T03:02:50.231Z,999.69
2016-03-02T03:05:58.973Z,999.6
2016-03-02T03:09:10.590Z,999.58
2016-03-02T03:12:26.191Z,999.52
2016-03-02T03:15:28.934Z,999.6
2016-03-02T03:18:38.427Z,999.46
2016-03-02T03:21:48.249Z,999.46
2016-03-02T03:24:56.336Z,999.32
2016-03-02T03:28:08.219Z,999.22
2016-03-02T03:31:21.727Z,999.22
2016-03-02T03:34:24.579Z,999.12
2016-03-02T03:37:36.229Z,999.08
2016-03-02T03:40:48.067Z,998.98
2016-03-02T03:43:59.981Z,998.98
2016-03-02T03:47:09.505Z,998.88
2016-03-02T03:50:25.513Z,998.88
2016-03-02T03:53:28.271Z,998.86
2016-03-02T03:56:38.888Z,998.8
2016-03-02T03:59:52.087Z,998.68
2016-03-02T04:03:03.813Z,998.7
2016-03-02T04:06:19.603Z,998.72
2016-03-02T04:09:26.564Z,998.7
2016-03-02T04:12:29.510Z,998.66
2016-03-02T04:15:40.955Z,998.5
2016-03-02T04:18:52.935Z,998.62
2016-03-02T04:22:04.896Z,998.48
2016-03-02T04:25:20.372Z,998.38
2016-03-02T04:28:27.303Z,998.48
2016-03-02T04:31:30.201Z,998.36
2016-03-02T04:34:39.240Z,998.32
2016-03-02T04:37:50.907Z,998.3
2016-03-02T04:41:02.775Z,998.36
2016-03-02T04:44:14.596Z,998.32
2016-03-02T04:47:26.306Z,998.3
2016-03-02T04:50:37.893Z,998.25
2016-03-02T04:53:46.855Z,998.26
2016-03-02T04:56:57.099Z,998.1
2016-03-02T05:00:05.982Z,998.04
2016-03-02T05:03:14.507Z,998.1
2016-03-02T05:06:26.326Z,997.9
2016-03-02T05:09:36.709Z,997.79
2016-03-02T05:12:48.643Z,997.81
2016-03-02T05:16:00.228Z,997.81
2016-03-02T05:19:12.033Z,997.71
2016-03-02T05:22:27.541Z,997.67
2016-03-02T05:25:30.831Z,997.55
2016-03-02T05:28:42.902Z,997.69
2016-03-02T05:31:52.631Z,997.63
2016-03-02T05:35:02.999Z,997.61
2016-03-02T05:38:13.335Z,997.53
2016-03-02T05:41:25.343Z,997.63
2016-03-02T05:44:35.117Z,997.47
2016-03-02T05:47:47.358Z,997.47
2016-03-02T05:50:57.964Z,997.41
2016-03-02T05:54:10.316Z,997.35
2016-03-02T05:57:26.463Z,997.33
2016-03-02T06:00:29.690Z,997.25
2016-03-02T06:03:41.979Z,997.23
2016-03-02T06:06:54.396Z,997.19
2016-03-02T06:10:06.701Z,997.03
2016-03-02T06:13:22.601Z,997.05
2016-03-02T06:16:25.937Z,996.89
2016-03-02T06:19:37.554Z,997.03
2016-03-02T06:22:49.502Z,996.95
2016-03-02T06:26:01.447Z,996.95
2016-03-02T06:29:12.097Z,996.91
2016-03-02T06:32:25.886Z,996.81
2016-03-02T06:35:29.097Z,996.69
2016-03-02T06:38:41.184Z,996.87
2016-03-02T06:41:53.225Z,996.83
2016-03-02T06:45:03.561Z,996.79
2016-03-02T06:48:19.851Z,996.83
2016-03-02T06:51:27.155Z,996.83
2016-03-02T06:54:30.492Z,996.75
2016-03-02T06:57:41.391Z,996.77
2016-03-02T07:00:53.761Z,996.77
2016-03-02T07:04:05.863Z,996.75
2016-03-02T07:07:14.355Z,996.55
2016-03-02T07:10:26.301Z,996.49
2016-03-02T07:13:35.310Z,996.53
2016-03-02T07:16:47.708Z,996.38
2016-03-02T07:20:00.044Z,996.3
2016-03-02T07:23:12.508Z,996.34
2016-03-02T07:26:25.625Z,996.38
2016-03-02T07:29:29.040Z,996.2
2016-03-02T07:32:37.517Z,996.24
2016-03-02T07:35:49.917Z,996.3
2016-03-02T07:39:02.346Z,996.14
2016-03-02T07:42:14.166Z,996.24
2016-03-02T07:45:26.427Z,996.1
2016-03-02T07:48:38.716Z,996.14
2016-03-02T07:51:51.006Z,996.12
2016-03-02T07:55:00.326Z,996.06
2016-03-02T07:58:12.850Z,996.06
2016-03-02T08:01:25.158Z,996.02
2016-03-02T08:04:34.744Z,995.92
2016-03-02T08:07:47.267Z,995.96
2016-03-02T08:10:59.635Z,995.88
2016-03-02T08:14:11.862Z,995.94
2016-03-02T08:17:28.029Z,995.88
2016-03-02T08:20:31.428Z,995.88
2016-03-02T08:23:40.529Z,995.74
2016-03-02T08:26:49.506Z,995.7
2016-03-02T08:30:03.343Z,995.66
2016-03-02T08:33:19.634Z,995.5
2016-03-02T08:36:26.986Z,995.44
2016-03-02T08:39:30.455Z,995.38
2016-03-02T08:42:41.469Z,995.28
2016-03-02T08:45:53.788Z,995.24
2016-03-02T08:49:06.270Z,995.22
2016-03-02T08:52:22.586Z,995.12
2016-03-02T08:55:26.170Z,995.24
2016-03-02T08:58:38.069Z,995.24
2016-03-02T09:01:50.607Z,995.12
2016-03-02T09:05:03.162Z,995.02
2016-03-02T09:08:13.296Z,995.02
2016-03-02T09:11:26.056Z,994.82
2016-03-02T09:14:38.236Z,994.82
2016-03-02T09:17:50.823Z,994.86
2016-03-02T09:21:01.768Z,994.7
2016-03-02T09:24:14.557Z,994.49
2016-03-02T09:27:28.880Z,994.55
2016-03-02T09:30:32.717Z,994.35
2016-03-02T09:33:45.334Z,994.23
2016-03-02T09:36:58.092Z,994.27
2016-03-02T09:40:10.132Z,994.23
2016-03-02T09:43:24.126Z,994.07
2016-03-02T09:46:28.009Z,994.03
2016-03-02T09:49:39.377Z,993.81
2016-03-02T09:52:51.511Z,993.87
2016-03-02T09:56:03.393Z,993.87
2016-03-02T09:59:12.572Z,994.01
2016-03-02T10:02:29.241Z,993.81
2016-03-02T10:05:32.966Z,993.67
2016-03-02T10:08:45.443Z,993.59
2016-03-02T10:11:56.655Z,993.77
2016-03-02T10:15:06.490Z,993.77
2016-03-02T10:18:23.202Z,993.51
2016-03-02T10:21:26.917Z,993.55
2016-03-02T10:24:39.159Z,993.55
2016-03-02T10:27:51.932Z,993.63
2016-03-02T10:31:03.363Z,993.24
2016-03-02T10:34:13.777Z,993.12
2016-03-02T10:37:27.928Z,993.16
2016-03-02T10:40:31.749Z,993.06
2016-03-02T10:43:44.366Z,992.88
2016-03-02T10:46:55.171Z,992.91
2016-03-02T10:50:05.742Z,992.95
2016-03-02T10:53:20.687Z,992.7
2016-03-02T10:56:28.839Z,992.62
2016-03-02T10:59:32.816Z,992.42
2016-03-02T11:02:45.620Z,992.5
2016-03-02T11:05:56.894Z,992.48
2016-03-02T11:09:09.746Z,992.5
2016-03-02T11:12:26.519Z,992.34
2016-03-02T11:15:30.671Z,992.1
2016-03-02T11:18:43.601Z,992.12
2016-03-02T11:21:56.781Z,992.1
2016-03-02T11:25:09.648Z,992.18
2016-03-02T11:28:25.172Z,991.96
2016-03-02T11:31:29.355Z,991.94
2016-03-02T11:34:39.488Z,991.96
2016-03-02T11:37:52.152Z,991.88
2016-03-02T11:41:04.832Z,991.8
2016-03-02T11:44:21.559Z,991.82
2016-03-02T11:47:29.645Z,991.68
2016-03-02T11:50:33.718Z,991.58
2016-03-02T11:53:46.601Z,991.74
2016-03-02T11:56:59.390Z,991.58
2016-03-02T12:00:10.898Z,991.6
2016-03-02T12:03:27.486Z,991.58
2016-03-02T12:06:31.523Z,991.56
2016-03-02T12:09:44.406Z,991.74
2016-03-02T12:12:57.117Z,991.76
2016-03-02T12:16:09.970Z,991.82
2016-03-02T12:19:26.586Z,991.84
2016-03-02T12:22:30.501Z,992.04
2016-03-02T12:25:43.308Z,991.94
2016-03-02T12:28:53.582Z,991.92
2016-03-02T12:32:06.449Z,991.82
2016-03-02T12:35:21.254Z,991.66
2016-03-02T12:38:29.638Z,991.72
2016-03-02T12:41:33.067Z,991.82
2016-03-02T12:44:45.969Z,991.9
2016-03-02T12:47:58.665Z,991.72
2016-03-02T12:51:09.486Z,991.7
2016-03-02T12:54:24.680Z,991.7
2016-03-02T12:57:28.580Z,991.76
2016-03-02T13:00:39.416Z,991.66
2016-03-02T13:03:51.989Z,991.72
2016-03-02T13:07:04.747Z,991.62
2016-03-02T13:10:20.240Z,991.56
2016-03-02T13:13:28.013Z,991.52
2016-03-02T13:16:31.896Z,991.66
2016-03-02T13:19:44.404Z,991.66
2016-03-02T13:22:56.994Z,991.48
2016-03-02T13:26:07.814Z,991.41
2016-03-02T13:29:24.588Z,991.39
2016-03-02T13:32:28.628Z,991.47
2016-03-02T13:35:38.245Z,991.41
2016-03-02T13:38:50.987Z,991.33
2016-03-02T13:42:03.733Z,991.27
2016-03-02T13:45:14.788Z,991.31
2016-03-02T13:48:27.686Z,991.25
2016-03-02T13:51:40.506Z,991.25
2016-03-02T13:54:52.812Z,991.29
2016-03-02T13:58:05.556Z,991.21
2016-03-02T14:01:15.940Z,991.17
2016-03-02T14:04:27.416Z,991.09
2016-03-02T14:07:40.019Z,991.07
2016-03-02T14:10:49.496Z,990.93
2016-03-02T14:14:02.006Z,991.05
2016-03-02T14:17:14.953Z,991.01
2016-03-02T14:20:27.586Z,990.99
2016-03-02T14:23:40.360Z,990.91
2016-03-02T14:26:50.508Z,990.93
2016-03-02T14:30:03.598Z,990.93
2016-03-02T14:33:14.770Z,990.85
2016-03-02T14:36:27.169Z,990.95
2016-03-02T14:39:39.396Z,990.83
2016-03-02T14:42:52.060Z,990.77
2016-03-02T14:46:04.475Z,990.97
2016-03-02T14:49:14.813Z,990.71
2016-03-02T14:52:26.440Z,990.69
2016-03-02T14:55:39.260Z,990.63
2016-03-02T14:58:51.910Z,990.59
2016-03-02T15:02:03.932Z,990.61
2016-03-02T15:05:20.693Z,990.65
2016-03-02T15:08:28.428Z,990.65
2016-03-02T15:11:32.186Z,990.55
2016-03-02T15:14:44.851Z,990.75
2016-03-02T15:17:57.250Z,990.55
2016-03-02T15:21:09.869Z,990.55
2016-03-02T15:24:25.143Z,990.53
2016-03-02T15:27:28.869Z,990.67
2016-03-02T15:30:41.581Z,990.65
2016-03-02T15:33:51.699Z,990.69
2016-03-02T15:37:04.207Z,990.75
2016-03-02T15:40:20.765Z,990.69
2016-03-02T15:43:28.569Z,990.81
2016-03-02T15:46:32.171Z,990.77
2016-03-02T15:49:44.695Z,990.83
2016-03-02T15:52:56.078Z,990.83
2016-03-02T15:56:08.305Z,990.77
2016-03-02T15:59:21.019Z,990.73
2016-03-02T16:02:28.636Z,990.75
2016-03-02T16:05:32.254Z,990.71
2016-03-02T16:08:43.543Z,990.87
2016-03-02T16:11:54.254Z,990.73
2016-03-02T16:15:03.903Z,991.07
2016-03-02T16:18:15.754Z,991.45
2016-03-02T16:21:27.984Z,991.39
2016-03-02T16:24:38.711Z,991.35
2016-03-02T16:27:51.250Z,991.41
2016-03-02T16:31:02.633Z,991.58
2016-03-02T16:34:14.954Z,991.9
2016-03-02T16:37:27.949Z,991.92
2016-03-02T16:40:38.066Z,992.28
2016-03-02T16:43:50.590Z,992.14
2016-03-02T16:47:03.129Z,992.24
2016-03-02T16:50:15.528Z,992.24
2016-03-02T16:53:27.711Z,992.3
2016-03-02T16:56:36.704Z,992.36
2016-03-02T16:59:49.150Z,992.42
2016-03-02T17:02:59.797Z,992.56
2016-03-02T17:06:11.368Z,992.56
2016-03-02T17:09:26.704Z,992.6
2016-03-02T17:12:30.309Z,992.76
2016-03-02T17:15:42.927Z,992.89
2016-03-02T17:18:55.341Z,992.86
2016-03-02T17:22:07.709Z,992.82
2016-03-02T17:25:24.014Z,993.08
2016-03-02T17:28:27.490Z,993.16
2016-03-02T17:31:38.642Z,993.14
2016-03-02T17:34:51.166Z,993.14
2016-03-02T17:38:00.689Z,993.2
2016-03-02T17:41:10.463Z,993.22
2016-03-02T17:44:26.713Z,993.18
2016-03-02T17:47:30.282Z,993.31
2016-03-02T17:50:42.598Z,993.31
2016-03-02T17:53:51.189Z,993.26
2016-03-02T17:57:02.068Z,993.27
2016-03-02T18:00:14.606Z,993.33
2016-03-02T18:03:27.737Z,993.29
2016-03-02T18:06:31.134Z,993.29
2016-03-02T18:09:41.923Z,993.29
2016-03-02T18:12:51.966Z,993.35
2016-03-02T18:16:04.363Z,993.57
2016-03-02T18:19:15.356Z,993.53
2016-03-02T18:22:29.349Z,993.45
2016-03-02T18:25:32.669Z,993.49
2016-03-02T18:28:44.865Z,993.49
2016-03-02T18:31:56.235Z,993.55
2016-03-02T18:35:08.680Z,993.61
2016-03-02T18:38:22.220Z,993.53
2016-03-02T18:41:29.555Z,993.71
2016-03-02T18:44:33.127Z,993.71
2016-03-02T18:47:44.416Z,993.81
2016-03-02T18:50:56.864Z,993.69
2016-03-02T18:54:08.981Z,993.75
2016-03-02T18:57:25.083Z,993.81
2016-03-02T19:00:28.513Z,993.77
2016-03-02T19:03:40.287Z,993.77
2016-03-02T19:06:52.496Z,993.67
2016-03-02T19:10:04.958Z,993.73
2016-03-02T19:13:14.497Z,993.83
2016-03-02T19:16:28.691Z,993.87
2016-03-02T19:19:32.107Z,994.03
2016-03-02T19:22:43.771Z,994.01
2016-03-02T19:25:54.251Z,994.03
2016-03-02T19:29:06.445Z,994.07
2016-03-02T19:32:16.610Z,994.13
2016-03-02T19:35:28.493Z,994.13
2016-03-02T19:38:37.955Z,994.01
2016-03-02T19:41:49.978Z,993.93
2016-03-02T19:45:00.833Z,994.03
2016-03-02T19:48:14.168Z,994.05
2016-03-02T19:51:30.208Z,994.03
2016-03-02T19:54:33.607Z,994.03
2016-03-02T19:57:44.740Z,994.03
2016-03-02T20:00:56.875Z,994.11
2016-03-02T20:04:09.165Z,994.21
2016-03-02T20:07:25.564Z,994.15
2016-03-02T20:10:28.822Z,994.09
2016-03-02T20:13:40.736Z,994.19
2016-03-02T20:16:52.869Z,994.33
2016-03-02T20:20:05.099Z,994.49
2016-03-02T20:23:17.357Z,994.47
2016-03-02T20:26:31.209Z,994.61
2016-03-02T20:29:34.451Z,994.67
2016-03-02T20:32:43.741Z,994.63
2016-03-02T20:35:56.108Z,994.86
2016-03-02T20:39:08.415Z,994.92
2016-03-02T20:42:18.939Z,995.06
2016-03-02T20:45:29.494Z,994.96
2016-03-02T20:48:41.518Z,995.08
2016-03-02T20:51:53.822Z,995.24
2016-03-02T20:55:05.849Z,995.18
2016-03-02T20:58:16.779Z,995.08
2016-03-02T21:01:31.365Z,995.08
2016-03-02T21:04:34.748Z,994.98
2016-03-02T21:07:47.147Z,994.8
2016-03-02T21:10:59.609Z,994.94
2016-03-02T21:14:12.025Z,994.92
2016-03-02T21:17:28.408Z,994.96
2016-03-02T21:20:31.776Z,995.18
2016-03-02T21:23:43.955Z,995.24
2016-03-02T21:26:53.902Z,995.34
2016-03-02T21:30:06.193Z,995.38
2016-03-02T21:33:18.327Z,995.28
2016-03-02T21:36:29.835Z,995.3
2016-03-02T21:39:39.889Z,995.34
2016-03-02T21:42:51.992Z,995.32
2016-03-02T21:46:04.437Z,995.48
2016-03-02T21:49:16.885Z,995.44
2016-03-02T21:52:33.424Z,995.42
2016-03-02T21:55:36.776Z,995.42
2016-03-02T21:58:48.549Z,995.42
2016-03-02T22:02:00.636Z,995.44
2016-03-02T22:05:13.054Z,995.52
2016-03-02T22:08:28.171Z,995.64
2016-03-02T22:11:35.460Z,995.64
2016-03-02T22:14:38.875Z,995.64
2016-03-02T22:17:49.867Z,995.64
2016-03-02T22:20:58.687Z,995.68
2016-03-02T22:24:08.791Z,995.66
2016-03-02T22:27:20.988Z,995.74
2016-03-02T22:30:34.996Z,995.68
2016-03-02T22:33:38.410Z,995.74
2016-03-02T22:36:50.684Z,995.8
2016-03-02T22:39:59.754Z,995.7
2016-03-02T22:43:10.296Z,995.64
2016-03-02T22:46:21.179Z,995.62
2016-03-02T22:49:34.687Z,995.46
2016-03-02T22:52:45.258Z,995.38
2016-03-02T22:55:54.375Z,995.5
2016-03-02T22:59:05.618Z,995.46
2016-03-02T23:02:17.113Z,995.54
2016-03-02T23:05:25.949Z,995.48
2016-03-02T23:08:36.254Z,995.54
2016-03-02T23:11:48.512Z,995.42
2016-03-02T23:14:57.676Z,995.56
2016-03-02T23:18:09.953Z,995.46
2016-03-02T23:21:22.117Z,995.5
2016-03-02T23:24:38.406Z,995.66
2016-03-02T23:27:41.914Z,995.66
2016-03-02T23:30:51.970Z,995.54
2016-03-02T23:34:03.852Z,995.48
2016-03-02T23:37:16.176Z,995.46
2016-03-02T23:40:32.371Z,995.54
2016-03-02T23:43:39.754Z,995.54
2016-03-02T23:46:43.028Z,995.68
2016-03-02T23:49:52.411Z,995.68
2016-03-02T23:53:04.545Z,995.66
2016-03-02T23:56:13.977Z,995.64
2016-03-02T23:59:26.267Z,995.64
